EHPG

P11-b Sea

P11-b Sea, The Netherlands
METAR EHPG 152025Z AUTO 06015KT 9999 NSC 20/14 Q1015 W///H///
Observed Flight Rules
Jul-15 @ 20:25 UTC (26 minutes ago) Visual Flight Rules
Wind Visibility Clouds
60° at 15 knots 10,000+ meters
  • Clear skies
Temperatures Readings
Current 20°C / 68°F
Dewpoint 14°C / 57°F
Humidity 69%
Altimeter 29.97" Hg
Pressure 1015 hPa
Elevation 50
METAR EHPG 152025Z AUTO 06015KT 9999 NSC 20/14 Q1015 W///H///
Observed Flight Rules
Jul-15 @ 20:25 UTC
(26 minutes ago)
VFR
Wind Visibility
60° at 15 knots 10,000+ meters
Clouds
  • Clear skies
Temperature Dewpoint
20°C / 68°F 14°C / 57°F
Humidity Altimeter Pressure
69% 29.97" Hg 1015 hPa